sensor_id;sensor_type;location;lat;lon;timestamp;temperature;humidity
18876;DHT22;9570;50.854;13.778;2023-01-19T00:02:21;-2.30;99.90
18876;DHT22;9570;50.854;13.778;2023-01-19T00:04:46;-2.40;99.90
18876;DHT22;9570;50.854;13.778;2023-01-19T00:07:12;-2.40;99.90
18876;DHT22;9570;50.854;13.778;2023-01-19T00:09:37;-2.60;99.90
18876;DHT22;9570;50.854;13.778;2023-01-19T00:12:10;-2.60;99.90
18876;DHT22;9570;50.854;13.778;2023-01-19T00:14:36;-2.60;99.90
18876;DHT22;9570;50.854;13.778;2023-01-19T00:17:01;-2.60;99.90
18876;DHT22;9570;50.854;13.778;2023-01-19T00:19:28;-2.60;99.90
18876;DHT22;9570;50.854;13.778;2023-01-19T00:21:53;-2.60;99.90
18876;DHT22;9570;50.854;13.778;2023-01-19T00:24:19;-2.70;99.90
18876;DHT22;9570;50.854;13.778;2023-01-19T00:26:45;-2.70;99.90
18876;DHT22;9570;50.854;13.778;2023-01-19T00:29:12;-2.70;99.90
18876;DHT22;9570;50.854;13.778;2023-01-19T00:31:38;-2.70;99.90
18876;DHT22;9570;50.854;13.778;2023-01-19T00:34:04;-2.70;99.90
18876;DHT22;9570;50.854;13.778;2023-01-19T00:36:31;-2.70;99.90
18876;DHT22;9570;50.854;13.778;2023-01-19T00:38:56;-2.80;99.90
18876;DHT22;9570;50.854;13.778;2023-01-19T00:41:23;-2.80;99.90
18876;DHT22;9570;50.854;13.778;2023-01-19T00:44:09;-2.80;99.90
18876;DHT22;9570;50.854;13.778;2023-01-19T00:46:34;-2.90;99.90
18876;DHT22;9570;50.854;13.778;2023-01-19T00:49:00;-2.90;99.90
18876;DHT22;9570;50.854;13.778;2023-01-19T00:51:25;-2.80;99.90
18876;DHT22;9570;50.854;13.778;2023-01-19T00:53:51;-2.80;99.90
18876;DHT22;9570;50.854;13.778;2023-01-19T00:56:17;-2.90;99.90
18876;DHT22;9570;50.854;13.778;2023-01-19T00:58:43;-2.80;99.90
18876;DHT22;9570;50.854;13.778;2023-01-19T01:01:10;-2.80;99.90
18876;DHT22;9570;50.854;13.778;2023-01-19T01:03:36;-2.80;99.90
18876;DHT22;9570;50.854;13.778;2023-01-19T01:06:01;-2.90;99.90
18876;DHT22;9570;50.854;13.778;2023-01-19T01:08:28;-2.90;99.90
18876;DHT22;9570;50.854;13.778;2023-01-19T01:10:55;-3.00;99.90
18876;DHT22;9570;50.854;13.778;2023-01-19T01:13:20;-3.00;99.90
18876;DHT22;9570;50.854;13.778;2023-01-19T01:15:49;-3.00;99.90
18876;DHT22;9570;50.854;13.778;2023-01-19T01:18:15;-3.10;99.90
18876;DHT22;9570;50.854;13.778;2023-01-19T01:20:40;-3.20;99.90
18876;DHT22;9570;50.854;13.778;2023-01-19T01:23:06;-3.20;99.90
18876;DHT22;9570;50.854;13.778;2023-01-19T01:25:31;-3.20;99.90
18876;DHT22;9570;50.854;13.778;2023-01-19T01:28:01;-3.20;99.90
18876;DHT22;9570;50.854;13.778;2023-01-19T01:30:29;-3.10;99.90
18876;DHT22;9570;50.854;13.778;2023-01-19T01:32:55;-3.10;99.90
18876;DHT22;9570;50.854;13.778;2023-01-19T01:35:20;-3.10;99.90
18876;DHT22;9570;50.854;13.778;2023-01-19T01:37:46;-3.10;99.90
18876;DHT22;9570;50.854;13.778;2023-01-19T01:40:13;-3.10;99.90
18876;DHT22;9570;50.854;13.778;2023-01-19T01:42:39;-3.10;99.90
18876;DHT22;9570;50.854;13.778;2023-01-19T01:47:51;-3.30;99.90
18876;DHT22;9570;50.854;13.778;2023-01-19T01:50:22;-3.40;99.90
18876;DHT22;9570;50.854;13.778;2023-01-19T05:14:28;-5.60;99.90
18876;DHT22;9570;50.854;13.778;2023-01-19T05:16:53;-5.20;99.90
18876;DHT22;9570;50.854;13.778;2023-01-19T05:19:19;-5.60;99.90
18876;DHT22;9570;50.854;13.778;2023-01-19T05:21:45;-5.70;99.90
18876;DHT22;9570;50.854;13.778;2023-01-19T05:24:11;-5.70;99.90
18876;DHT22;9570;50.854;13.778;2023-01-19T05:26:36;-5.80;99.90
18876;DHT22;9570;50.854;13.778;2023-01-19T05:29:02;-5.70;99.90
18876;DHT22;9570;50.854;13.778;2023-01-19T05:31:28;-5.90;99.90
18876;DHT22;9570;50.854;13.778;2023-01-19T05:33:53;-5.90;99.90
18876;DHT22;9570;50.854;13.778;2023-01-19T05:36:19;-6.00;99.90
18876;DHT22;9570;50.854;13.778;2023-01-19T05:38:44;-6.00;99.90
18876;DHT22;9570;50.854;13.778;2023-01-19T06:01:53;-6.10;99.90
18876;DHT22;9570;50.854;13.778;2023-01-19T06:07:40;-6.10;99.90
18876;DHT22;9570;50.854;13.778;2023-01-19T06:12:41;-6.10;99.90
18876;DHT22;9570;50.854;13.778;2023-01-19T06:15:07;-5.80;99.90
18876;DHT22;9570;50.854;13.778;2023-01-19T06:17:33;-6.20;99.90
18876;DHT22;9570;50.854;13.778;2023-01-19T06:19:58;-6.20;99.90
18876;DHT22;9570;50.854;13.778;2023-01-19T06:30:11;-6.10;99.90
18876;DHT22;9570;50.854;13.778;2023-01-19T06:32:36;-6.20;99.90
18876;DHT22;9570;50.854;13.778;2023-01-19T06:35:02;-6.10;99.90
18876;DHT22;9570;50.854;13.778;2023-01-19T06:37:28;-6.10;99.90
18876;DHT22;9570;50.854;13.778;2023-01-19T06:39:54;-6.10;99.90
18876;DHT22;9570;50.854;13.778;2023-01-19T06:47:30;-6.00;99.90
18876;DHT22;9570;50.854;13.778;2023-01-19T06:49:57;-6.10;99.90
18876;DHT22;9570;50.854;13.778;2023-01-19T06:52:23;-6.20;99.90
18876;DHT22;9570;50.854;13.778;2023-01-19T06:54:48;-6.10;99.90
18876;DHT22;9570;50.854;13.778;2023-01-19T06:57:14;-6.10;99.90
18876;DHT22;9570;50.854;13.778;2023-01-19T06:59:40;-6.20;99.90
18876;DHT22;9570;50.854;13.778;2023-01-19T07:02:05;-6.20;99.90
18876;DHT22;9570;50.854;13.778;2023-01-19T07:04:31;-6.20;99.90
18876;DHT22;9570;50.854;13.778;2023-01-19T07:06:56;-6.20;99.90
18876;DHT22;9570;50.854;13.778;2023-01-19T07:09:22;-6.20;99.90
18876;DHT22;9570;50.854;13.778;2023-01-19T07:11:49;-6.20;99.90
18876;DHT22;9570;50.854;13.778;2023-01-19T07:14:15;-6.30;99.90
18876;DHT22;9570;50.854;13.778;2023-01-19T07:16:40;-6.30;99.90
18876;DHT22;9570;50.854;13.778;2023-01-19T07:19:06;-6.30;99.90
18876;DHT22;9570;50.854;13.778;2023-01-19T07:21:34;-6.40;99.90
18876;DHT22;9570;50.854;13.778;2023-01-19T07:24:00;-6.40;99.90
18876;DHT22;9570;50.854;13.778;2023-01-19T07:26:25;-6.30;99.90
18876;DHT22;9570;50.854;13.778;2023-01-19T07:28:52;-6.30;99.90
18876;DHT22;9570;50.854;13.778;2023-01-19T07:31:18;-6.30;99.90
18876;DHT22;9570;50.854;13.778;2023-01-19T07:33:44;-6.20;99.90
18876;DHT22;9570;50.854;13.778;2023-01-19T07:36:10;-6.20;99.90
18876;DHT22;9570;50.854;13.778;2023-01-19T07:38:35;-6.20;99.90
18876;DHT22;9570;50.854;13.778;2023-01-19T07:41:02;-6.10;99.90
18876;DHT22;9570;50.854;13.778;2023-01-19T07:43:28;-6.10;99.90
18876;DHT22;9570;50.854;13.778;2023-01-19T07:45:58;-6.10;99.90
18876;DHT22;9570;50.854;13.778;2023-01-19T07:48:24;-6.10;99.90
18876;DHT22;9570;50.854;13.778;2023-01-19T07:50:50;-6.00;99.90
18876;DHT22;9570;50.854;13.778;2023-01-19T07:53:15;-5.90;99.90
18876;DHT22;9570;50.854;13.778;2023-01-19T07:55:41;-5.70;99.90
18876;DHT22;9570;50.854;13.778;2023-01-19T07:58:06;-5.20;99.90
18876;DHT22;9570;50.854;13.778;2023-01-19T08:00:33;-4.60;99.90
18876;DHT22;9570;50.854;13.778;2023-01-19T08:03:00;-4.20;99.90
18876;DHT22;9570;50.854;13.778;2023-01-19T08:05:26;-3.80;99.90
18876;DHT22;9570;50.854;13.778;2023-01-19T08:07:54;-3.70;99.90
18876;DHT22;9570;50.854;13.778;2023-01-19T08:10:22;-3.50;99.90
18876;DHT22;9570;50.854;13.778;2023-01-19T08:12:50;-3.30;99.90
18876;DHT22;9570;50.854;13.778;2023-01-19T08:15:16;-3.00;99.90
18876;DHT22;9570;50.854;13.778;2023-01-19T08:17:41;-2.70;99.90
18876;DHT22;9570;50.854;13.778;2023-01-19T08:20:07;-2.20;99.90
18876;DHT22;9570;50.854;13.778;2023-01-19T08:22:33;-2.00;99.90
18876;DHT22;9570;50.854;13.778;2023-01-19T08:24:59;-1.70;99.90
18876;DHT22;9570;50.854;13.778;2023-01-19T08:27:24;-1.40;99.90
18876;DHT22;9570;50.854;13.778;2023-01-19T08:29:50;-1.20;99.90
18876;DHT22;9570;50.854;13.778;2023-01-19T08:32:15;-1.10;99.90
18876;DHT22;9570;50.854;13.778;2023-01-19T08:34:41;-0.90;99.90
18876;DHT22;9570;50.854;13.778;2023-01-19T08:37:06;-0.60;99.90
18876;DHT22;9570;50.854;13.778;2023-01-19T08:39:32;-0.20;99.90
18876;DHT22;9570;50.854;13.778;2023-01-19T08:41:57;-0.10;99.90
18876;DHT22;9570;50.854;13.778;2023-01-19T08:44:25;0.10;99.90
18876;DHT22;9570;50.854;13.778;2023-01-19T08:46:50;0.30;99.90
18876;DHT22;9570;50.854;13.778;2023-01-19T08:49:16;0.70;99.90
18876;DHT22;9570;50.854;13.778;2023-01-19T08:51:41;1.00;99.90
18876;DHT22;9570;50.854;13.778;2023-01-19T08:54:10;1.20;99.90
18876;DHT22;9570;50.854;13.778;2023-01-19T08:56:36;1.40;99.90
18876;DHT22;9570;50.854;13.778;2023-01-19T08:59:01;1.60;99.90
18876;DHT22;9570;50.854;13.778;2023-01-19T09:01:26;2.00;99.90
18876;DHT22;9570;50.854;13.778;2023-01-19T09:03:52;2.20;99.90
18876;DHT22;9570;50.854;13.778;2023-01-19T09:06:18;2.50;99.90
18876;DHT22;9570;50.854;13.778;2023-01-19T09:08:45;2.60;99.90
18876;DHT22;9570;50.854;13.778;2023-01-19T09:11:12;2.80;99.90
18876;DHT22;9570;50.854;13.778;2023-01-19T09:13:39;3.00;99.90
18876;DHT22;9570;50.854;13.778;2023-01-19T09:16:06;3.20;99.90
18876;DHT22;9570;50.854;13.778;2023-01-19T09:18:37;3.20;99.90
18876;DHT22;9570;50.854;13.778;2023-01-19T09:21:02;3.30;99.90
18876;DHT22;9570;50.854;13.778;2023-01-19T09:23:28;3.70;99.90
18876;DHT22;9570;50.854;13.778;2023-01-19T09:26:01;4.00;99.90
18876;DHT22;9570;50.854;13.778;2023-01-19T09:28:27;4.20;99.90
18876;DHT22;9570;50.854;13.778;2023-01-19T09:30:53;4.50;99.90
18876;DHT22;9570;50.854;13.778;2023-01-19T09:33:19;4.80;99.90
18876;DHT22;9570;50.854;13.778;2023-01-19T09:35:46;4.90;99.90
18876;DHT22;9570;50.854;13.778;2023-01-19T09:38:13;5.20;99.90
18876;DHT22;9570;50.854;13.778;2023-01-19T09:40:47;5.30;99.90
18876;DHT22;9570;50.854;13.778;2023-01-19T09:43:30;5.40;99.90
18876;DHT22;9570;50.854;13.778;2023-01-19T09:46:02;5.50;99.90
18876;DHT22;9570;50.854;13.778;2023-01-19T09:48:46;5.60;99.90
18876;DHT22;9570;50.854;13.778;2023-01-19T09:51:15;5.50;99.90
18876;DHT22;9570;50.854;13.778;2023-01-19T09:54:05;5.50;99.90
18876;DHT22;9570;50.854;13.778;2023-01-19T09:56:33;5.40;99.90
18876;DHT22;9570;50.854;13.778;2023-01-19T09:58:59;5.60;99.90
18876;DHT22;9570;50.854;13.778;2023-01-19T10:01:49;5.50;99.90
18876;DHT22;9570;50.854;13.778;2023-01-19T10:09:56;5.80;99.90
18876;DHT22;9570;50.854;13.778;2023-01-19T10:18:43;5.80;99.90
18876;DHT22;9570;50.854;13.778;2023-01-19T10:21:21;5.00;99.90
18876;DHT22;9570;50.854;13.778;2023-01-19T10:23:56;4.50;99.90
18876;DHT22;9570;50.854;13.778;2023-01-19T10:26:26;4.30;99.90
18876;DHT22;9570;50.854;13.778;2023-01-19T10:29:04;4.00;99.90
18876;DHT22;9570;50.854;13.778;2023-01-19T10:31:31;4.10;99.90
18876;DHT22;9570;50.854;13.778;2023-01-19T10:33:57;4.20;99.90
18876;DHT22;9570;50.854;13.778;2023-01-19T10:36:37;4.20;99.90
18876;DHT22;9570;50.854;13.778;2023-01-19T10:39:05;4.00;99.90
18876;DHT22;9570;50.854;13.778;2023-01-19T10:41:42;4.20;99.90
18876;DHT22;9570;50.854;13.778;2023-01-19T10:44:09;4.00;99.90
18876;DHT22;9570;50.854;13.778;2023-01-19T10:46:47;4.00;99.90
18876;DHT22;9570;50.854;13.778;2023-01-19T10:49:28;4.00;99.90
18876;DHT22;9570;50.854;13.778;2023-01-19T10:51:57;3.80;99.90
18876;DHT22;9570;50.854;13.778;2023-01-19T10:54:23;3.90;99.90
18876;DHT22;9570;50.854;13.778;2023-01-19T10:56:56;4.00;99.90
18876;DHT22;9570;50.854;13.778;2023-01-19T10:59:46;4.10;99.90
18876;DHT22;9570;50.854;13.778;2023-01-19T11:02:21;4.30;99.90
18876;DHT22;9570;50.854;13.778;2023-01-19T11:15:14;5.60;99.90
18876;DHT22;9570;50.854;13.778;2023-01-19T11:28:35;5.50;99.90
18876;DHT22;9570;50.854;13.778;2023-01-19T11:38:49;5.20;99.90
18876;DHT22;9570;50.854;13.778;2023-01-19T11:46:31;4.30;99.90
18876;DHT22;9570;50.854;13.778;2023-01-19T12:12:27;4.00;99.90
18876;DHT22;9570;50.854;13.778;2023-01-19T12:17:34;4.20;99.90
18876;DHT22;9570;50.854;13.778;2023-01-19T12:22:48;4.20;99.90
18876;DHT22;9570;50.854;13.778;2023-01-19T12:25:21;4.20;99.90
18876;DHT22;9570;50.854;13.778;2023-01-19T12:27:48;4.40;99.90
18876;DHT22;9570;50.854;13.778;2023-01-19T12:30:21;4.60;99.90
18876;DHT22;9570;50.854;13.778;2023-01-19T12:32:47;4.80;99.90
18876;DHT22;9570;50.854;13.778;2023-01-19T12:38:23;4.50;99.90
18876;DHT22;9570;50.854;13.778;2023-01-19T12:41:24;4.30;99.90
18876;DHT22;9570;50.854;13.778;2023-01-19T12:52:08;4.10;99.90
18876;DHT22;9570;50.854;13.778;2023-01-19T12:54:36;3.90;99.90
18876;DHT22;9570;50.854;13.778;2023-01-19T12:57:08;3.90;99.90
18876;DHT22;9570;50.854;13.778;2023-01-19T12:59:39;3.90;99.90
18876;DHT22;9570;50.854;13.778;2023-01-19T13:05:09;3.80;99.90
18876;DHT22;9570;50.854;13.778;2023-01-19T13:49:56;3.50;99.90
18876;DHT22;9570;50.854;13.778;2023-01-19T13:52:22;3.40;99.90
18876;DHT22;9570;50.854;13.778;2023-01-19T13:54:53;3.30;99.90
18876;DHT22;9570;50.854;13.778;2023-01-19T13:57:27;3.10;99.90
18876;DHT22;9570;50.854;13.778;2023-01-19T14:21:01;2.70;99.90
18876;DHT22;9570;50.854;13.778;2023-01-19T18:06:08;-1.20;99.90
18876;DHT22;9570;50.854;13.778;2023-01-19T18:08:37;-1.20;99.90
18876;DHT22;9570;50.854;13.778;2023-01-19T18:11:05;-1.10;99.90
18876;DHT22;9570;50.854;13.778;2023-01-19T18:13:30;-1.00;99.90
18876;DHT22;9570;50.854;13.778;2023-01-19T18:39:14;-0.80;99.90
18876;DHT22;9570;50.854;13.778;2023-01-19T18:41:39;-0.80;99.90
18876;DHT22;9570;50.854;13.778;2023-01-19T18:44:08;-0.70;99.90
18876;DHT22;9570;50.854;13.778;2023-01-19T18:46:33;-0.60;99.90
18876;DHT22;9570;50.854;13.778;2023-01-19T18:48:59;-0.60;99.90
18876;DHT22;9570;50.854;13.778;2023-01-19T18:51:24;-0.50;99.90
18876;DHT22;9570;50.854;13.778;2023-01-19T18:53:50;-0.50;99.90
18876;DHT22;9570;50.854;13.778;2023-01-19T18:56:15;-0.40;99.90
18876;DHT22;9570;50.854;13.778;2023-01-19T18:58:41;-0.40;99.90
